Time;durP1;ratioP1;P1;durP2;ratioP2;P2;SDS_P1;SDS_P2;PMS_P1;PMS_P2;Temp;Humidity;BMP_temperature;BMP_pressure;BME280_temperature;BME280_humidity;BME280_pressure;Samples;Min_cycle;Max_cycle;Signal;HPM_P1;HPM_P2
2022/07/15 00:01:40;;;;;;;15.00;3.05;;;;;;;;;;5011760;28;20037;-68
2022/07/15 00:04:06;;;;;;;12.98;3.08;;;;;;;;;;4995453;28;20038;-68
2022/07/15 00:06:32;;;;;;;18.83;3.83;;;;;;;;;;4995187;28;20050;-69
2022/07/15 00:08:58;;;;;;;15.68;3.67;;;;;;;;;;4995560;28;20553;-68
2022/07/15 00:11:24;;;;;;;15.30;3.20;;;;;;;;;;5002397;28;20445;-69
2022/07/15 00:13:50;;;;;;;12.23;3.13;;;;;;;;;;5012410;28;20559;-69
2022/07/15 00:16:16;;;;;;;15.25;3.35;;;;;;;;;;4994070;28;20046;-69
2022/07/15 00:18:42;;;;;;;19.17;3.80;;;;;;;;;;4994568;28;20050;-70
2022/07/15 00:21:08;;;;;;;13.77;3.25;;;;;;;;;;5002591;28;20046;-69
2022/07/15 00:23:35;;;;;;;14.25;3.40;;;;;;;;;;5012376;28;20119;-69
2022/07/15 00:26:01;;;;;;;15.48;3.13;;;;;;;;;;5007732;28;20068;-69
2022/07/15 00:28:28;;;;;;;14.50;3.03;;;;;;;;;;5014765;28;20053;-69
2022/07/15 00:30:55;;;;;;;16.42;2.95;;;;;;;;;;5012526;28;20056;-69
2022/07/15 00:33:21;;;;;;;15.55;3.10;;;;;;;;;;5012449;28;20080;-69
2022/07/15 00:35:47;;;;;;;13.93;3.25;;;;;;;;;;5010791;28;20406;-69
2022/07/15 00:38:13;;;;;;;16.25;2.90;;;;;;;;;;5014702;28;20046;-69
2022/07/15 00:40:44;;;;;;;11.35;2.75;;;;;;;;;;4995810;28;20410;-69
2022/07/15 00:43:10;;;;;;;15.30;3.28;;;;;;;;;;5012652;28;20046;-69
2022/07/15 00:45:36;;;;;;;;;;;;;;;;;;4995685;28;20042;-69
2022/07/15 00:48:02;;;;;;;15.77;3.50;;;;;;;;;;5011135;28;19967;-69
2022/07/15 00:50:29;;;;;;;14.38;3.22;;;;;;;;;;5008206;28;20077;-69
2022/07/15 00:52:56;;;;;;;18.52;3.55;;;;;;;;;;4996499;28;20402;-69
2022/07/15 00:55:23;;;;;;;15.70;3.47;;;;;;;;;;5013710;28;20046;-69
2022/07/15 00:57:50;;;;;;;14.20;3.03;;;;;;;;;;5011234;28;20053;-69
2022/07/15 01:00:16;;;;;;;16.17;3.50;;;;;;;;;;4995067;28;20162;-69
2022/07/15 01:02:49;;;;;;;12.48;3.05;;;;;;;;;;4994858;28;20046;-69
2022/07/15 01:05:16;;;;;;;16.95;3.10;;;;;;;;;;4994595;28;20100;-68
2022/07/15 01:07:42;;;;;;;18.73;3.75;;;;;;;;;;5009417;28;20394;-69
2022/07/15 01:10:08;;;;;;;16.40;3.55;;;;;;;;;;5012312;28;20054;-69
2022/07/15 01:12:34;;;;;;;;;;;;;;;;;;5013303;28;20046;-69
2022/07/15 01:15:00;;;;;;;16.70;3.67;;;;;;;;;;4994080;28;19926;-69
2022/07/15 01:17:26;;;;;;;13.45;3.30;;;;;;;;;;4999408;28;20105;-69
2022/07/15 01:19:52;;;;;;;17.80;3.28;;;;;;;;;;5011407;28;20038;-69
2022/07/15 01:22:18;;;;;;;17.13;3.35;;;;;;;;;;5011690;28;20383;-69
2022/07/15 01:24:44;;;;;;;13.75;3.20;;;;;;;;;;5017783;28;20482;-69
2022/07/15 01:27:10;;;;;;;14.73;3.28;;;;;;;;;;5008672;28;20467;-69
2022/07/15 01:29:37;;;;;;;13.55;3.00;;;;;;;;;;5006028;28;20099;-69
2022/07/15 01:32:03;;;;;;;12.77;2.70;;;;;;;;;;5010535;28;20046;-69
2022/07/15 01:34:29;;;;;;;11.55;2.60;;;;;;;;;;5013001;28;20047;-69
2022/07/15 01:36:55;;;;;;;19.13;3.35;;;;;;;;;;5006178;28;20125;-68
2022/07/15 01:39:21;;;;;;;13.15;2.45;;;;;;;;;;4994567;28;20074;-69
2022/07/15 01:41:47;;;;;;;11.30;2.38;;;;;;;;;;4993560;28;20042;-69
2022/07/15 01:44:16;;;;;;;13.60;3.03;;;;;;;;;;5009715;28;20042;-68
2022/07/15 01:46:42;;;;;;;13.95;2.80;;;;;;;;;;5012270;28;20125;-73
2022/07/15 01:49:26;;;;;;;21.88;3.38;;;;;;;;;;5011630;28;20050;-69
2022/07/15 01:51:55;;;;;;;14.95;2.80;;;;;;;;;;5007121;28;20050;-69
2022/07/15 01:54:22;;;;;;;15.02;2.97;;;;;;;;;;4976356;28;20058;-69
2022/07/15 01:56:49;;;;;;;13.23;2.38;;;;;;;;;;4992263;28;20149;-69
2022/07/15 01:59:15;;;;;;;13.85;3.10;;;;;;;;;;4993512;28;20085;-69
2022/07/15 02:01:42;;;;;;;16.05;2.85;;;;;;;;;;5010161;28;20046;-71
2022/07/15 02:04:08;;;;;;;13.57;3.13;;;;;;;;;;4994206;28;20049;-69
2022/07/15 02:06:36;;;;;;;12.70;2.85;;;;;;;;;;4977149;28;20074;-69
2022/07/15 02:09:03;;;;;;;13.82;2.67;;;;;;;;;;5011352;28;20053;-69
2022/07/15 02:11:29;;;;;;;12.10;2.33;;;;;;;;;;5009772;28;20042;-70
2022/07/15 02:13:58;;;;;;;16.10;2.78;;;;;;;;;;5010967;28;20081;-69
2022/07/15 02:16:24;;;;;;;12.18;2.17;;;;;;;;;;5012624;28;20111;-69
2022/07/15 02:18:51;;;;;;;9.35;2.20;;;;;;;;;;4992601;28;20402;-69
2022/07/15 02:21:17;;;;;;;15.18;2.80;;;;;;;;;;4993462;28;20081;-69
2022/07/15 02:23:43;;;;;;;11.25;2.35;;;;;;;;;;5000532;28;20395;-68
2022/07/15 02:26:09;;;;;;;13.10;2.72;;;;;;;;;;5012059;28;20051;-69
2022/07/15 02:28:35;;;;;;;11.65;2.60;;;;;;;;;;4997111;28;20053;-68
2022/07/15 02:31:01;;;;;;;11.27;2.50;;;;;;;;;;4992394;28;20158;-69
2022/07/15 02:33:28;;;;;;;10.27;2.35;;;;;;;;;;4999847;28;20053;-69
2022/07/15 02:35:54;;;;;;;;;;;;;;;;;;4992447;28;20058;-69
2022/07/15 02:38:22;;;;;;;8.30;2.25;;;;;;;;;;5007278;28;19929;-69
2022/07/15 02:40:48;;;;;;;7.95;2.00;;;;;;;;;;4994884;28;20398;-73
2022/07/15 02:43:14;;;;;;;11.35;2.60;;;;;;;;;;4988389;28;20479;-69
2022/07/15 02:45:40;;;;;;;13.75;2.70;;;;;;;;;;5011909;28;20046;-68
2022/07/15 02:48:06;;;;;;;;;;;;;;;;;;5009808;28;20052;-68
2022/07/15 02:50:32;;;;;;;10.68;2.30;;;;;;;;;;5011359;28;20016;-69
2022/07/15 02:52:58;;;;;;;11.20;2.17;;;;;;;;;;5007928;28;20038;-69
2022/07/15 02:55:24;;;;;;;14.60;3.80;;;;;;;;;;4994045;28;20199;-68
2022/07/15 02:57:50;;;;;;;14.25;2.60;;;;;;;;;;5010879;28;20065;-73
2022/07/15 03:00:17;;;;;;;10.60;2.70;;;;;;;;;;5008851;28;20050;-69
2022/07/15 03:02:43;;;;;;;10.45;2.25;;;;;;;;;;5009372;28;20049;-69
2022/07/15 03:05:09;;;;;;;;;;;;;;;;;;5005249;28;20042;-69
2022/07/15 03:07:36;;;;;;;12.75;2.38;;;;;;;;;;5008445;28;19944;-69
2022/07/15 03:10:02;;;;;;;;;;;;;;;;;;5002548;28;20105;-69
2022/07/15 03:12:29;;;;;;;11.38;2.30;;;;;;;;;;4996897;28;19933;-73
2022/07/15 03:14:55;;;;;;;11.80;2.50;;;;;;;;;;5004681;28;20112;-69
2022/07/15 03:17:21;;;;;;;8.57;2.33;;;;;;;;;;5011246;28;20046;-69
2022/07/15 03:19:47;;;;;;;9.95;2.67;;;;;;;;;;4992843;28;20053;-69
2022/07/15 03:22:13;;;;;;;11.52;2.20;;;;;;;;;;5009557;28;20141;-71
2022/07/15 03:24:39;;;;;;;15.35;2.80;;;;;;;;;;4993667;28;20042;-68
2022/07/15 03:27:05;;;;;;;10.25;2.40;;;;;;;;;;4993891;28;20058;-69
2022/07/15 03:29:31;;;;;;;10.00;2.10;;;;;;;;;;4988743;28;20062;-69
2022/07/15 03:31:57;;;;;;;9.95;2.28;;;;;;;;;;4990593;28;20046;-69
2022/07/15 03:34:25;;;;;;;8.10;2.28;;;;;;;;;;5003065;28;20057;-69
2022/07/15 03:36:51;;;;;;;12.80;3.08;;;;;;;;;;5009643;28;20128;-68
2022/07/15 03:39:17;;;;;;;12.23;2.72;;;;;;;;;;4989658;28;20256;-68
2022/07/15 03:41:43;;;;;;;9.50;2.42;;;;;;;;;;5009708;28;20142;-69
2022/07/15 03:44:10;;;;;;;10.55;2.17;;;;;;;;;;4999656;28;20089;-69
2022/07/15 03:46:36;;;;;;;;;;;;;;;;;;4985897;28;20057;-69
2022/07/15 03:49:02;;;;;;;11.88;2.53;;;;;;;;;;4995824;28;19929;-69
2022/07/15 03:51:31;;;;;;;9.68;2.30;;;;;;;;;;4993934;28;20362;-69
2022/07/15 03:54:01;;;;;;;12.20;2.83;;;;;;;;;;5000209;28;20073;-74
2022/07/15 03:56:28;;;;;;;9.88;2.25;;;;;;;;;;5011434;28;20058;-69
2022/07/15 03:58:54;;;;;;;10.93;2.17;;;;;;;;;;5011632;28;20046;-69
2022/07/15 04:01:21;;;;;;;11.57;2.08;;;;;;;;;;5011771;28;20049;-69
2022/07/15 04:03:50;;;;;;;9.23;2.30;;;;;;;;;;5002164;28;20038;-69
2022/07/15 04:06:17;;;;;;;10.02;2.50;;;;;;;;;;5011336;28;20049;-69
2022/07/15 04:08:43;;;;;;;10.00;2.15;;;;;;;;;;4988916;28;20366;-69
2022/07/15 04:11:10;;;;;;;9.18;2.03;;;;;;;;;;5008311;28;20491;-68
2022/07/15 04:13:36;;;;;;;9.30;2.22;;;;;;;;;;4996899;28;20038;-68
2022/07/15 04:16:02;;;;;;;8.38;2.60;;;;;;;;;;4994289;28;20068;-69
2022/07/15 04:18:28;;;;;;;9.48;1.98;;;;;;;;;;5008882;28;20049;-69
2022/07/15 04:20:54;;;;;;;7.43;1.80;;;;;;;;;;5009888;28;20049;-72
2022/07/15 04:23:20;;;;;;;8.77;2.03;;;;;;;;;;5010000;28;20128;-68
2022/07/15 04:25:46;;;;;;;8.43;2.17;;;;;;;;;;4994992;28;20050;-69
2022/07/15 04:28:12;;;;;;;7.68;1.80;;;;;;;;;;5000205;28;20470;-68
2022/07/15 04:30:38;;;;;;;7.70;1.85;;;;;;;;;;4990328;28;20173;-68
2022/07/15 04:33:04;;;;;;;10.35;2.45;;;;;;;;;;4992709;28;20081;-68
2022/07/15 04:35:30;;;;;;;9.30;2.53;;;;;;;;;;4994640;28;20049;-68
2022/07/15 04:37:56;;;;;;;7.18;1.90;;;;;;;;;;5011235;28;20136;-69
2022/07/15 04:40:22;;;;;;;9.63;2.10;;;;;;;;;;4994970;28;20506;-68
2022/07/15 04:42:48;;;;;;;11.00;1.85;;;;;;;;;;4993829;28;20070;-68
2022/07/15 04:45:14;;;;;;;7.43;2.00;;;;;;;;;;5000059;28;20049;-69
2022/07/15 04:47:41;;;;;;;7.93;1.98;;;;;;;;;;5007614;28;20056;-68
2022/07/15 04:52:51;;;;;;;8.45;2.10;;;;;;;;;;5018909;28;19928;-68
2022/07/15 04:55:17;;;;;;;9.35;1.92;;;;;;;;;;4992965;28;20054;-68
2022/07/15 04:57:44;;;;;;;6.30;1.90;;;;;;;;;;5011165;28;20494;-68
2022/07/15 05:00:10;;;;;;;11.43;2.15;;;;;;;;;;5003152;28;20053;-68
2022/07/15 05:02:36;;;;;;;12.43;2.47;;;;;;;;;;4996707;28;20050;-68
2022/07/15 05:05:03;;;;;;;8.13;1.95;;;;;;;;;;5003216;28;20042;-68
2022/07/15 05:07:29;;;;;;;7.93;2.00;;;;;;;;;;5005829;28;20540;-68
2022/07/15 05:09:55;;;;;;;8.27;2.05;;;;;;;;;;5003441;28;20043;-69
2022/07/15 05:12:21;;;;;;;7.88;1.95;;;;;;;;;;4992101;28;20047;-68
2022/07/15 05:14:47;;;;;;;8.38;2.22;;;;;;;;;;5002187;28;20514;-68
2022/07/15 05:17:13;;;;;;;6.45;2.00;;;;;;;;;;5009609;28;20048;-72
2022/07/15 05:19:39;;;;;;;9.73;2.65;;;;;;;;;;4999323;28;20116;-68
2022/07/15 05:22:05;;;;;;;11.13;2.15;;;;;;;;;;4989651;28;20092;-68
2022/07/15 05:24:31;;;;;;;9.38;1.75;;;;;;;;;;5008336;28;20038;-69
2022/07/15 05:26:58;;;;;;;11.15;2.17;;;;;;;;;;5007014;28;20086;-68
2022/07/15 05:29:25;;;;;;;10.02;1.92;;;;;;;;;;5000663;28;20057;-68
2022/07/15 05:31:51;;;;;;;8.48;2.22;;;;;;;;;;5009570;28;20073;-72
2022/07/15 05:34:17;;;;;;;7.50;1.80;;;;;;;;;;5003368;28;20440;-68
2022/07/15 05:36:44;;;;;;;9.02;2.55;;;;;;;;;;5007741;28;20437;-68
2022/07/15 05:39:10;;;;;;;10.00;2.08;;;;;;;;;;5001287;28;20089;-68
2022/07/15 05:41:36;;;;;;;10.75;2.17;;;;;;;;;;5001674;28;20130;-68
2022/07/15 05:44:02;;;;;;;;;;;;;;;;;;5000918;28;20034;-69
2022/07/15 05:46:28;;;;;;;6.50;1.85;;;;;;;;;;4996574;28;19926;-68
2022/07/15 05:48:54;;;;;;;8.70;2.28;;;;;;;;;;5008907;28;20410;-68
2022/07/15 05:51:20;;;;;;;9.48;2.08;;;;;;;;;;5011407;28;20046;-68
2022/07/15 05:53:46;;;;;;;9.00;1.95;;;;;;;;;;5010558;28;20038;-69
2022/07/15 05:56:12;;;;;;;9.68;1.95;;;;;;;;;;4992088;28;20374;-69
2022/07/15 05:58:38;;;;;;;8.43;1.80;;;;;;;;;;5005935;28;20133;-69
2022/07/15 06:01:05;;;;;;;9.48;2.08;;;;;;;;;;5009470;28;20054;-68
2022/07/15 06:03:32;;;;;;;10.48;1.95;;;;;;;;;;4998490;28;20157;-68
2022/07/15 06:05:58;;;;;;;8.48;1.95;;;;;;;;;;4993701;28;20054;-69
2022/07/15 06:08:24;;;;;;;12.77;2.00;;;;;;;;;;5007476;28;20552;-73
2022/07/15 06:10:50;;;;;;;7.63;1.70;;;;;;;;;;5002855;28;20129;-68
2022/07/15 06:13:16;;;;;;;11.95;2.15;;;;;;;;;;5006206;28;20100;-71
2022/07/15 06:15:42;;;;;;;6.53;1.60;;;;;;;;;;5001499;28;20084;-72
2022/07/15 06:18:09;;;;;;;9.15;2.30;;;;;;;;;;4987395;28;20093;-70
2022/07/15 06:20:35;;;;;;;9.85;2.00;;;;;;;;;;5006563;28;20148;-68
2022/07/15 06:23:01;;;;;;;9.25;2.28;;;;;;;;;;5004986;28;20516;-68
2022/07/15 06:25:27;;;;;;;7.80;2.15;;;;;;;;;;5003409;28;20121;-68
2022/07/15 06:27:53;;;;;;;9.77;2.05;;;;;;;;;;5007068;28;20042;-67
2022/07/15 06:30:19;;;;;;;28.40;2.25;;;;;;;;;;5005270;28;20057;-68
2022/07/15 06:32:45;;;;;;;7.15;2.20;;;;;;;;;;5015196;28;20188;-67
2022/07/15 06:35:11;;;;;;;10.57;1.95;;;;;;;;;;5008342;28;20045;-68
2022/07/15 06:37:37;;;;;;;;;;;;;;;;;;5002208;28;20073;-67
2022/07/15 06:40:03;;;;;;;8.52;2.30;;;;;;;;;;5006921;28;19921;-68
2022/07/15 06:42:29;;;;;;;;;;;;;;;;;;5001529;28;20498;-68
2022/07/15 06:44:55;;;;;;;6.95;1.98;;;;;;;;;;4996863;28;19921;-67
2022/07/15 06:47:21;;;;;;;11.38;2.08;;;;;;;;;;4980578;28;20434;-68
2022/07/15 06:49:49;;;;;;;10.48;2.80;;;;;;;;;;5000833;28;20050;-68
2022/07/15 06:52:16;;;;;;;8.48;2.20;;;;;;;;;;5005225;28;20057;-69
2022/07/15 06:54:42;;;;;;;9.15;2.13;;;;;;;;;;5004711;28;20243;-69
2022/07/15 06:57:08;;;;;;;6.80;1.80;;;;;;;;;;5004579;28;20058;-68
2022/07/15 06:59:35;;;;;;;9.05;2.00;;;;;;;;;;5010204;28;20057;-68
2022/07/15 07:02:00;;;;;;;;;;;;;;;;;;4991487;28;20100;-68
2022/07/15 07:04:27;;;;;;;8.25;1.83;;;;;;;;;;5008090;28;21810;-68
2022/07/15 07:06:53;;;;;;;;;;;;;;;;;;5010014;28;20080;-71
2022/07/15 07:09:19;;;;;;;9.32;1.90;;;;;;;;;;5008887;28;20007;-68
2022/07/15 07:11:45;;;;;;;10.82;2.00;;;;;;;;;;5008315;28;20037;-68
2022/07/15 07:14:11;;;;;;;10.40;2.28;;;;;;;;;;5008751;28;20046;-68
2022/07/15 07:16:37;;;;;;;9.75;2.03;;;;;;;;;;5004900;28;20116;-68
2022/07/15 07:19:04;;;;;;;11.50;2.13;;;;;;;;;;4991942;28;20046;-68
2022/07/15 07:21:30;;;;;;;8.43;2.00;;;;;;;;;;5007673;28;20493;-69
2022/07/15 07:23:56;;;;;;;9.43;1.90;;;;;;;;;;5000901;28;20116;-69
2022/07/15 07:26:22;;;;;;;9.15;2.13;;;;;;;;;;5008279;28;20129;-68
2022/07/15 07:28:48;;;;;;;9.40;2.00;;;;;;;;;;4983910;28;20077;-68
2022/07/15 07:31:15;;;;;;;7.75;1.95;;;;;;;;;;5009040;28;20049;-68
2022/07/15 07:33:42;;;;;;;8.30;1.80;;;;;;;;;;5000174;28;20077;-69
2022/07/15 07:36:08;;;;;;;9.77;2.17;;;;;;;;;;4998901;28;20498;-68
2022/07/15 07:38:34;;;;;;;;;;;;;;;;;;4990795;28;20048;-68
2022/07/15 07:41:00;;;;;;;9.88;2.10;;;;;;;;;;5012784;28;19921;-69
2022/07/15 07:43:27;;;;;;;;;;;;;;;;;;4991980;28;20042;-71
2022/07/15 07:45:53;;;;;;;7.75;1.95;;;;;;;;;;5010160;28;20047;-70
2022/07/15 07:48:20;;;;;;;9.13;1.83;;;;;;;;;;5008351;28;20072;-70
2022/07/15 07:50:46;;;;;;;8.30;1.88;;;;;;;;;;4992437;28;20045;-69
2022/07/15 07:53:12;;;;;;;12.15;2.53;;;;;;;;;;5008247;28;20038;-70
2022/07/15 07:55:38;;;;;;;;;;;;;;;;;;4993789;28;20046;-70
2022/07/15 07:58:05;;;;;;;11.23;2.03;;;;;;;;;;5006878;28;19925;-70
2022/07/15 08:00:31;;;;;;;9.55;2.25;;;;;;;;;;5006309;28;20046;-70
2022/07/15 08:02:58;;;;;;;8.30;2.00;;;;;;;;;;5010050;28;20129;-70
2022/07/15 08:05:25;;;;;;;6.00;1.80;;;;;;;;;;4983244;28;20050;-70
2022/07/15 08:07:51;;;;;;;4.50;1.55;;;;;;;;;;5004545;28;20106;-69
2022/07/15 08:10:19;;;;;;;;;;;;;;;;;;5009258;28;20054;-69
2022/07/15 08:12:45;;;;;;;5.70;1.70;;;;;;;;;;5010681;28;19975;-69
2022/07/15 08:15:12;;;;;;;6.30;1.50;;;;;;;;;;5010952;28;20046;-73
2022/07/15 08:17:38;;;;;;;8.48;1.50;;;;;;;;;;5022810;28;20049;-66
2022/07/15 08:20:09;;;;;;;10.00;1.50;;;;;;;;;;4977960;28;20042;-69
2022/07/15 08:22:35;;;;;;;5.53;1.60;;;;;;;;;;5001202;28;20050;-66
2022/07/15 08:25:02;;;;;;;3.97;1.90;;;;;;;;;;5008484;28;20073;-67
2022/07/15 08:27:28;;;;;;;5.63;1.45;;;;;;;;;;5011770;28;20046;-76
2022/07/15 08:29:55;;;;;;;;;;;;;;;;;;4992765;28;20037;-69
2022/07/15 08:32:21;;;;;;;;;;;;;;;;;;5011592;28;19932;-73
2022/07/15 08:34:47;;;;;;;6.03;1.40;;;;;;;;;;5011209;28;20031;-70
2022/07/15 08:37:14;;;;;;;5.60;1.52;;;;;;;;;;5011445;28;20157;-71
2022/07/15 08:39:40;;;;;;;9.07;1.52;;;;;;;;;;5003439;28;20070;-71
2022/07/15 08:42:06;;;;;;;2.78;1.23;;;;;;;;;;4993558;28;20046;-71
2022/07/15 08:44:32;;;;;;;;;;;;;;;;;;4996780;28;20042;-75
2022/07/15 08:47:01;;;;;;;7.25;1.52;;;;;;;;;;5011507;28;20028;-74
2022/07/15 08:49:29;;;;;;;8.07;1.50;;;;;;;;;;5004855;28;20050;-72
2022/07/15 08:51:56;;;;;;;2.72;1.33;;;;;;;;;;4994227;28;20521;-71
2022/07/15 08:54:23;;;;;;;8.02;1.63;;;;;;;;;;5007359;28;20045;-70
2022/07/15 08:56:49;;;;;;;;;;;;;;;;;;5002840;28;20173;-71
2022/07/15 08:59:16;;;;;;;4.70;1.48;;;;;;;;;;5001997;28;20016;-71
2022/07/15 09:01:43;;;;;;;5.80;1.60;;;;;;;;;;4992481;28;20104;-71
2022/07/15 09:04:09;;;;;;;7.22;1.80;;;;;;;;;;5005982;28;20077;-71
2022/07/15 09:06:36;;;;;;;6.30;1.60;;;;;;;;;;5006534;28;20074;-75
2022/07/15 09:09:28;;;;;;;6.53;1.70;;;;;;;;;;5003076;28;20053;-71
2022/07/15 09:12:11;;;;;;;8.38;1.50;;;;;;;;;;4991420;28;20041;-71
2022/07/15 09:14:38;;;;;;;2.47;1.30;;;;;;;;;;5005775;28;20043;-67
2022/07/15 09:17:10;;;;;;;2.92;1.50;;;;;;;;;;5009840;28;20513;-66
2022/07/15 09:19:55;;;;;;;9.60;1.70;;;;;;;;;;5006990;28;20077;-69
2022/07/15 09:22:21;;;;;;;7.03;1.58;;;;;;;;;;5006229;28;20061;-69
2022/07/15 09:24:50;;;;;;;4.80;1.45;;;;;;;;;;5009662;28;20406;-70
2022/07/15 09:27:30;;;;;;;5.53;1.42;;;;;;;;;;5009557;28;20083;-69
2022/07/15 09:38:13;;;;;;;4.47;1.67;;;;;;;;;;5007168;28;20068;-66
2022/07/15 09:40:48;;;;;;;4.50;1.50;;;;;;;;;;4975058;28;20041;-68
2022/07/15 09:43:14;;;;;;;6.72;1.52;;;;;;;;;;5000825;28;20084;-70
2022/07/15 09:45:40;;;;;;;8.20;1.73;;;;;;;;;;5006559;28;20154;-69
2022/07/15 09:48:09;;;;;;;6.55;1.50;;;;;;;;;;5011307;28;20486;-67
2022/07/15 09:50:36;;;;;;;6.50;1.65;;;;;;;;;;4993295;28;20049;-67
2022/07/15 09:53:10;;;;;;;3.70;1.27;;;;;;;;;;5005325;28;20411;-67
2022/07/15 09:55:39;;;;;;;4.82;1.67;;;;;;;;;;5004639;28;20057;-67
2022/07/15 09:58:07;;;;;;;3.75;1.30;;;;;;;;;;5007931;28;20081;-66
2022/07/15 10:00:34;;;;;;;6.28;1.65;;;;;;;;;;5011961;28;20053;-66
2022/07/15 10:03:00;;;;;;;;;;;;;;;;;;5009309;28;20133;-69
2022/07/15 10:05:27;;;;;;;3.80;1.23;;;;;;;;;;5006913;28;19922;-67
2022/07/15 10:07:56;;;;;;;4.75;1.60;;;;;;;;;;5004415;28;20045;-66
2022/07/15 10:10:23;;;;;;;7.50;1.58;;;;;;;;;;4980287;28;20049;-69
2022/07/15 10:13:08;;;;;;;6.05;1.65;;;;;;;;;;5000308;28;20078;-68
2022/07/15 10:15:50;;;;;;;7.95;1.90;;;;;;;;;;4996118;28;20058;-69
2022/07/15 10:18:19;;;;;;;5.90;1.50;;;;;;;;;;4997584;28;20077;-68
2022/07/15 10:21:04;;;;;;;4.63;1.33;;;;;;;;;;4997894;28;20173;-65
2022/07/15 10:23:46;;;;;;;7.75;1.85;;;;;;;;;;5004142;28;20049;-68
2022/07/15 10:26:31;;;;;;;5.60;1.40;;;;;;;;;;5018939;28;20050;-67
2022/07/15 10:29:04;;;;;;;4.63;1.60;;;;;;;;;;5007036;28;20041;-67
2022/07/15 10:31:31;;;;;;;4.00;1.38;;;;;;;;;;5006370;28;20116;-68
2022/07/15 10:34:02;;;;;;;4.60;1.40;;;;;;;;;;5007639;28;20041;-67
2022/07/15 10:37:01;;;;;;;7.78;1.50;;;;;;;;;;5003999;28;20140;-68
2022/07/15 10:39:45;;;;;;;5.97;1.63;;;;;;;;;;4951785;28;20148;-67
2022/07/15 10:42:11;;;;;;;7.07;1.70;;;;;;;;;;5008340;28;20150;-68
2022/07/15 10:44:49;;;;;;;5.60;1.50;;;;;;;;;;5010767;28;20046;-68
2022/07/15 10:47:15;;;;;;;4.88;1.40;;;;;;;;;;5006643;28;20049;-66
2022/07/15 10:49:42;;;;;;;6.80;1.70;;;;;;;;;;5002010;28;20060;-70
2022/07/15 10:52:15;;;;;;;6.10;1.60;;;;;;;;;;5007872;28;20135;-68
2022/07/15 10:54:46;;;;;;;5.72;1.40;;;;;;;;;;5008650;28;20035;-69
2022/07/15 10:57:16;;;;;;;5.05;1.35;;;;;;;;;;5001500;28;20061;-70
2022/07/15 10:59:49;;;;;;;4.72;1.58;;;;;;;;;;5011205;28;20514;-67
2022/07/15 11:02:16;;;;;;;5.70;1.50;;;;;;;;;;5012179;28;20057;-69
2022/07/15 11:04:44;;;;;;;3.05;1.30;;;;;;;;;;4996171;28;20042;-68
2022/07/15 11:07:10;;;;;;;4.72;1.40;;;;;;;;;;5006851;28;20104;-68
2022/07/15 11:09:36;;;;;;;;;;;;;;;;;;4999617;28;20049;-70
2022/07/15 11:12:02;;;;;;;8.27;1.40;;;;;;;;;;5012702;28;20369;-68
2022/07/15 11:14:47;;;;;;;3.33;1.23;;;;;;;;;;5014638;28;20266;-67
2022/07/15 11:17:16;;;;;;;4.35;1.42;;;;;;;;;;5014565;28;20191;-70
2022/07/15 11:19:42;;;;;;;4.32;1.30;;;;;;;;;;5012562;28;20061;-69
2022/07/15 11:22:09;;;;;;;4.72;1.90;;;;;;;;;;5012842;28;20109;-65
2022/07/15 11:24:36;;;;;;;5.18;1.55;;;;;;;;;;5009299;28;20132;-66
2022/07/15 11:27:02;;;;;;;4.30;1.35;;;;;;;;;;4980060;28;20060;-66
2022/07/15 11:29:44;;;;;;;4.35;1.48;;;;;;;;;;5010331;28;20087;-65
2022/07/15 11:32:10;;;;;;;4.25;1.50;;;;;;;;;;5002073;28;20060;-66
2022/07/15 11:34:39;;;;;;;5.55;1.48;;;;;;;;;;5014132;28;20046;-67
2022/07/15 11:37:05;;;;;;;4.95;1.35;;;;;;;;;;4995337;28;20060;-66
2022/07/15 11:39:32;;;;;;;5.18;1.60;;;;;;;;;;4999487;28;20246;-66
2022/07/15 11:44:47;;;;;;;4.13;1.48;;;;;;;;;;5013129;28;20050;-67
2022/07/15 11:47:13;;;;;;;5.47;1.58;;;;;;;;;;4998084;28;20505;-64
2022/07/15 11:49:40;;;;;;;4.60;1.50;;;;;;;;;;5010677;28;20466;-66
2022/07/15 11:52:06;;;;;;;6.70;1.75;;;;;;;;;;5010777;28;20049;-66
2022/07/15 11:54:35;;;;;;;5.45;1.80;;;;;;;;;;5013624;28;20363;-65
2022/07/15 11:57:02;;;;;;;5.45;1.60;;;;;;;;;;4994365;28;20174;-65
2022/07/15 11:59:29;;;;;;;4.85;1.50;;;;;;;;;;5009633;28;20050;-64
2022/07/15 12:02:05;;;;;;;7.00;1.92;;;;;;;;;;5011790;28;20065;-66
2022/07/15 12:04:31;;;;;;;5.10;1.60;;;;;;;;;;5012452;28;20143;-66
2022/07/15 12:06:58;;;;;;;9.70;1.80;;;;;;;;;;5004867;28;20046;-65
2022/07/15 12:09:24;;;;;;;4.43;1.50;;;;;;;;;;5007699;28;20058;-66
2022/07/15 12:11:50;;;;;;;8.93;2.05;;;;;;;;;;5012925;28;20052;-66
2022/07/15 12:14:21;;;;;;;6.88;2.00;;;;;;;;;;4978394;28;20046;-66
2022/07/15 12:16:51;;;;;;;8.50;2.25;;;;;;;;;;4993574;28;20077;-66
2022/07/15 12:19:20;;;;;;;9.40;1.88;;;;;;;;;;5004918;28;20034;-69
2022/07/15 12:21:48;;;;;;;6.05;1.80;;;;;;;;;;5011628;28;20054;-67
2022/07/15 12:24:15;;;;;;;6.38;1.83;;;;;;;;;;5003969;28;20506;-68
2022/07/15 12:26:50;;;;;;;7.20;1.77;;;;;;;;;;4994246;28;20050;-70
2022/07/15 12:29:18;;;;;;;8.27;1.70;;;;;;;;;;4998198;28;20038;-65
2022/07/15 12:31:51;;;;;;;7.80;2.10;;;;;;;;;;4999556;28;20050;-68
2022/07/15 12:34:17;;;;;;;8.60;2.17;;;;;;;;;;5007911;28;20201;-68
2022/07/15 12:36:43;;;;;;;7.15;2.00;;;;;;;;;;5010997;28;20060;-68
2022/07/15 12:39:11;;;;;;;6.55;1.90;;;;;;;;;;4987560;28;20077;-67
2022/07/15 12:41:38;;;;;;;9.05;1.92;;;;;;;;;;5005006;28;20191;-71
2022/07/15 12:44:05;;;;;;;6.93;1.83;;;;;;;;;;4991384;28;20042;-69
2022/07/15 12:46:50;;;;;;;9.80;2.15;;;;;;;;;;5008917;28;20077;-67
2022/07/15 12:49:34;;;;;;;6.95;2.00;;;;;;;;;;5005743;28;20077;-67
2022/07/15 12:52:11;;;;;;;7.13;2.20;;;;;;;;;;5007329;28;20569;-70
2022/07/15 12:54:37;;;;;;;8.35;2.65;;;;;;;;;;5004857;28;20047;-70
2022/07/15 12:57:03;;;;;;;;;;;;;;;;;;5004096;28;20069;-67
2022/07/15 12:59:30;;;;;;;8.75;2.28;;;;;;;;;;5001926;28;19922;-70
2022/07/15 13:02:05;;;;;;;8.68;2.45;;;;;;;;;;4999488;28;20050;-70
2022/07/15 13:04:31;;;;;;;8.20;2.30;;;;;;;;;;4982198;28;20417;-69
2022/07/15 13:06:57;;;;;;;8.45;2.03;;;;;;;;;;5002925;28;20046;-67
2022/07/15 13:09:23;;;;;;;8.20;2.20;;;;;;;;;;4996405;28;20046;-69
2022/07/15 13:12:00;;;;;;;10.25;2.33;;;;;;;;;;4979835;28;20197;-69
2022/07/15 13:14:26;;;;;;;7.55;2.10;;;;;;;;;;5001672;28;20073;-67
2022/07/15 13:16:52;;;;;;;7.28;2.28;;;;;;;;;;5003123;28;20038;-68
2022/07/15 13:19:18;;;;;;;6.93;2.22;;;;;;;;;;5007622;28;20046;-67
2022/07/15 13:21:44;;;;;;;7.40;2.00;;;;;;;;;;5000828;28;20230;-67
2022/07/15 13:24:10;;;;;;;8.20;2.13;;;;;;;;;;4997933;28;20049;-66
2022/07/15 13:26:36;;;;;;;10.43;2.45;;;;;;;;;;5011018;28;20077;-66
2022/07/15 13:29:02;;;;;;;;;;;;;;;;;;5007795;28;20216;-67
2022/07/15 13:31:28;;;;;;;8.60;2.08;;;;;;;;;;5008501;28;20060;-66
2022/07/15 13:33:54;;;;;;;6.88;2.22;;;;;;;;;;5008488;28;20441;-68
2022/07/15 13:36:21;;;;;;;7.10;1.92;;;;;;;;;;5005480;28;20050;-67
2022/07/15 13:38:47;;;;;;;5.90;1.90;;;;;;;;;;5005307;28;20057;-70
2022/07/15 13:41:13;;;;;;;9.98;2.45;;;;;;;;;;4994070;28;20054;-69
2022/07/15 13:43:39;;;;;;;7.38;2.30;;;;;;;;;;4997117;28;20073;-69
2022/07/15 13:46:05;;;;;;;8.45;2.20;;;;;;;;;;5010415;28;20053;-67
2022/07/15 13:48:31;;;;;;;7.18;2.08;;;;;;;;;;5003861;28;20451;-70
2022/07/15 13:53:42;;;;;;;9.50;2.50;;;;;;;;;;5004917;28;20045;-65
2022/07/15 13:56:08;;;;;;;8.15;2.40;;;;;;;;;;5007191;28;20593;-68
2022/07/15 13:58:34;;;;;;;;;;;;;;;;;;5008622;28;20062;-67
2022/07/15 14:01:00;;;;;;;7.47;2.25;;;;;;;;;;4986638;28;19932;-65
2022/07/15 14:03:26;;;;;;;;;;;;;;;;;;4998060;28;20144;-63
2022/07/15 14:05:52;;;;;;;7.20;2.15;;;;;;;;;;4995825;28;19980;-65
2022/07/15 14:08:18;;;;;;;10.88;2.50;;;;;;;;;;5000929;28;20046;-74
2022/07/15 14:10:45;;;;;;;7.93;2.40;;;;;;;;;;5001107;28;20154;-67
2022/07/15 14:13:10;;;;;;;;;;;;;;;;;;5006413;28;20441;-67
2022/07/15 14:15:37;;;;;;;11.73;2.58;;;;;;;;;;5008025;28;19921;-65
2022/07/15 14:18:03;;;;;;;9.90;2.92;;;;;;;;;;4974967;28;20049;-69
2022/07/15 14:20:29;;;;;;;;;;;;;;;;;;5003761;28;21290;-69
2022/07/15 14:22:55;;;;;;;10.68;2.95;;;;;;;;;;4999802;28;19921;-69
2022/07/15 14:25:22;;;;;;;9.52;2.90;;;;;;;;;;5005589;28;20046;-68
2022/07/15 14:27:48;;;;;;;7.22;2.20;;;;;;;;;;5003682;28;20438;-68
2022/07/15 14:30:15;;;;;;;7.15;2.42;;;;;;;;;;5006413;28;20953;-69
2022/07/15 14:32:42;;;;;;;8.32;2.35;;;;;;;;;;5005137;28;20510;-68
2022/07/15 14:35:08;;;;;;;5.80;2.15;;;;;;;;;;4997575;28;20397;-68
2022/07/15 14:37:34;;;;;;;8.55;2.38;;;;;;;;;;4996348;28;20046;-69
2022/07/15 14:40:00;;;;;;;5.85;2.13;;;;;;;;;;4964204;28;20072;-67
2022/07/15 14:42:26;;;;;;;;;;;;;;;;;;5002724;28;20145;-68
2022/07/15 14:44:53;;;;;;;6.88;2.30;;;;;;;;;;5001028;28;19930;-67
2022/07/15 14:47:19;;;;;;;;;;;;;;;;;;4983329;28;20363;-68
2022/07/15 14:49:45;;;;;;;6.88;2.03;;;;;;;;;;4985752;28;19929;-68
2022/07/15 14:52:11;;;;;;;7.07;2.28;;;;;;;;;;5009989;28;20049;-68
2022/07/15 14:54:37;;;;;;;8.57;2.40;;;;;;;;;;5007028;28;20054;-68
2022/07/15 14:57:03;;;;;;;9.48;2.50;;;;;;;;;;5006441;28;20053;-76
2022/07/15 14:59:29;;;;;;;9.93;2.30;;;;;;;;;;4997237;28;20108;-74
2022/07/15 15:01:55;;;;;;;;;;;;;;;;;;5001215;28;20077;-73
2022/07/15 15:04:22;;;;;;;9.18;2.50;;;;;;;;;;4992978;28;19948;-70
2022/07/15 15:06:48;;;;;;;8.40;2.33;;;;;;;;;;5008709;28;20058;-73